In Rescue
 
Open Full Screen Window  High Contrast Mode
Wind Gusting 14 knots
09
November 29, 2022 9:58 AM EST
Weather Information
Wind Direction
  160 °
Wind Speed
  09 kt (10 mph)
Wind Gust
  14 kt (16 mph)
Altimeter
30.01 in
Visibility
10 SM
Temperature
05° C
41° F
Dewpoint
01° C
34° F
Humidity
76%
Sky Condition
Overcast @ 3,900 ft
VFR

METAR KBAX 291458Z AUTO 16009G14KT 10SM OVC039 05/01 A3001 RMK AO2 T00480010

FAA Disclaimer: The data displayed is for advisory purposes only and is not to be used for flight planning or operations.